sensor_id;sensor_type;location;lat;lon;timestamp;P1;durP1;ratioP1;P2;durP2;ratioP2
71637;SDS011;59485;43.542;-5.676;2023-06-14T00:02:17;13.53;;;9.17;;
71637;SDS011;59485;43.542;-5.676;2023-06-14T00:04:43;21.38;;;12.73;;
71637;SDS011;59485;43.542;-5.676;2023-06-14T00:07:08;19.27;;;8.40;;
71637;SDS011;59485;43.542;-5.676;2023-06-14T00:09:34;18.70;;;9.82;;
71637;SDS011;59485;43.542;-5.676;2023-06-14T00:12:00;24.63;;;13.98;;
71637;SDS011;59485;43.542;-5.676;2023-06-14T00:14:26;35.07;;;22.67;;
71637;SDS011;59485;43.542;-5.676;2023-06-14T00:16:51;37.33;;;22.70;;
71637;SDS011;59485;43.542;-5.676;2023-06-14T00:19:23;35.97;;;22.27;;
71637;SDS011;59485;43.542;-5.676;2023-06-14T00:21:52;31.83;;;18.70;;
71637;SDS011;59485;43.542;-5.676;2023-06-14T00:24:18;25.55;;;16.45;;
71637;SDS011;59485;43.542;-5.676;2023-06-14T00:26:43;22.77;;;13.77;;
71637;SDS011;59485;43.542;-5.676;2023-06-14T00:29:09;27.07;;;18.20;;
71637;SDS011;59485;43.542;-5.676;2023-06-14T00:31:34;43.17;;;27.43;;
71637;SDS011;59485;43.542;-5.676;2023-06-14T00:34:00;41.80;;;25.43;;
71637;SDS011;59485;43.542;-5.676;2023-06-14T00:36:25;38.43;;;24.37;;
71637;SDS011;59485;43.542;-5.676;2023-06-14T00:38:51;39.35;;;22.60;;
71637;SDS011;59485;43.542;-5.676;2023-06-14T00:41:16;36.43;;;20.37;;
71637;SDS011;59485;43.542;-5.676;2023-06-14T00:43:42;33.70;;;21.23;;
71637;SDS011;59485;43.542;-5.676;2023-06-14T00:46:07;40.23;;;20.43;;
71637;SDS011;59485;43.542;-5.676;2023-06-14T00:48:33;39.78;;;22.67;;
71637;SDS011;59485;43.542;-5.676;2023-06-14T00:51:00;43.87;;;22.93;;
71637;SDS011;59485;43.542;-5.676;2023-06-14T00:53:29;37.20;;;21.67;;
71637;SDS011;59485;43.542;-5.676;2023-06-14T00:55:56;28.40;;;18.08;;
71637;SDS011;59485;43.542;-5.676;2023-06-14T00:58:22;36.55;;;21.80;;
71637;SDS011;59485;43.542;-5.676;2023-06-14T01:00:48;28.15;;;15.85;;
71637;SDS011;59485;43.542;-5.676;2023-06-14T01:03:13;22.70;;;14.00;;
71637;SDS011;59485;43.542;-5.676;2023-06-14T01:05:46;23.42;;;13.45;;
71637;SDS011;59485;43.542;-5.676;2023-06-14T01:11:05;21.15;;;11.00;;
71637;SDS011;59485;43.542;-5.676;2023-06-14T01:13:40;24.77;;;11.33;;
71637;SDS011;59485;43.542;-5.676;2023-06-14T01:16:10;15.75;;;9.32;;
71637;SDS011;59485;43.542;-5.676;2023-06-14T01:18:36;17.15;;;9.43;;
71637;SDS011;59485;43.542;-5.676;2023-06-14T01:21:19;16.67;;;9.10;;
71637;SDS011;59485;43.542;-5.676;2023-06-14T01:23:45;10.93;;;7.32;;
71637;SDS011;59485;43.542;-5.676;2023-06-14T01:26:13;17.00;;;8.93;;
71637;SDS011;59485;43.542;-5.676;2023-06-14T01:28:41;22.00;;;10.60;;
71637;SDS011;59485;43.542;-5.676;2023-06-14T01:31:06;24.67;;;10.30;;
71637;SDS011;59485;43.542;-5.676;2023-06-14T01:33:33;22.35;;;11.70;;
71637;SDS011;59485;43.542;-5.676;2023-06-14T01:36:00;24.33;;;12.60;;
71637;SDS011;59485;43.542;-5.676;2023-06-14T01:38:28;18.83;;;11.60;;
71637;SDS011;59485;43.542;-5.676;2023-06-14T01:40:58;20.35;;;12.68;;
71637;SDS011;59485;43.542;-5.676;2023-06-14T01:43:25;22.77;;;14.55;;
71637;SDS011;59485;43.542;-5.676;2023-06-14T01:45:52;28.70;;;17.83;;
71637;SDS011;59485;43.542;-5.676;2023-06-14T01:48:20;30.30;;;20.83;;
71637;SDS011;59485;43.542;-5.676;2023-06-14T01:50:47;34.47;;;24.58;;
71637;SDS011;59485;43.542;-5.676;2023-06-14T01:53:13;33.25;;;21.83;;
71637;SDS011;59485;43.542;-5.676;2023-06-14T01:55:39;33.10;;;19.00;;
71637;SDS011;59485;43.542;-5.676;2023-06-14T01:58:08;32.10;;;20.30;;
71637;SDS011;59485;43.542;-5.676;2023-06-14T02:00:34;25.90;;;18.05;;
71637;SDS011;59485;43.542;-5.676;2023-06-14T02:03:00;23.00;;;14.98;;
71637;SDS011;59485;43.542;-5.676;2023-06-14T02:05:29;18.73;;;11.30;;
71637;SDS011;59485;43.542;-5.676;2023-06-14T02:07:55;21.83;;;11.43;;
71637;SDS011;59485;43.542;-5.676;2023-06-14T02:10:20;19.15;;;10.52;;
71637;SDS011;59485;43.542;-5.676;2023-06-14T02:12:46;18.77;;;9.50;;
71637;SDS011;59485;43.542;-5.676;2023-06-14T02:15:12;13.57;;;7.60;;
71637;SDS011;59485;43.542;-5.676;2023-06-14T02:17:42;12.32;;;7.30;;
71637;SDS011;59485;43.542;-5.676;2023-06-14T02:20:08;12.00;;;6.77;;
71637;SDS011;59485;43.542;-5.676;2023-06-14T02:22:34;13.20;;;6.95;;
71637;SDS011;59485;43.542;-5.676;2023-06-14T02:25:00;13.15;;;7.90;;
71637;SDS011;59485;43.542;-5.676;2023-06-14T02:27:25;20.53;;;7.27;;
71637;SDS011;59485;43.542;-5.676;2023-06-14T02:29:51;13.33;;;7.30;;
71637;SDS011;59485;43.542;-5.676;2023-06-14T02:32:16;12.77;;;6.97;;
71637;SDS011;59485;43.542;-5.676;2023-06-14T02:34:42;14.43;;;8.03;;
71637;SDS011;59485;43.542;-5.676;2023-06-14T02:37:08;16.30;;;7.80;;
71637;SDS011;59485;43.542;-5.676;2023-06-14T02:39:34;17.70;;;7.87;;
71637;SDS011;59485;43.542;-5.676;2023-06-14T02:42:00;13.18;;;7.03;;
71637;SDS011;59485;43.542;-5.676;2023-06-14T02:44:26;14.77;;;7.13;;
71637;SDS011;59485;43.542;-5.676;2023-06-14T02:46:55;13.88;;;7.75;;
71637;SDS011;59485;43.542;-5.676;2023-06-14T02:49:21;15.23;;;7.28;;
71637;SDS011;59485;43.542;-5.676;2023-06-14T02:51:47;10.63;;;6.80;;
71637;SDS011;59485;43.542;-5.676;2023-06-14T02:54:13;15.30;;;7.63;;
71637;SDS011;59485;43.542;-5.676;2023-06-14T02:56:38;12.45;;;6.57;;
71637;SDS011;59485;43.542;-5.676;2023-06-14T02:59:04;14.47;;;6.40;;
71637;SDS011;59485;43.542;-5.676;2023-06-14T03:01:29;15.10;;;7.23;;
71637;SDS011;59485;43.542;-5.676;2023-06-14T03:03:58;14.43;;;6.78;;
71637;SDS011;59485;43.542;-5.676;2023-06-14T03:06:24;13.05;;;6.85;;
71637;SDS011;59485;43.542;-5.676;2023-06-14T03:08:50;15.40;;;7.27;;
71637;SDS011;59485;43.542;-5.676;2023-06-14T03:11:16;10.15;;;6.28;;
71637;SDS011;59485;43.542;-5.676;2023-06-14T03:13:45;14.57;;;6.53;;
71637;SDS011;59485;43.542;-5.676;2023-06-14T03:16:12;12.77;;;6.53;;
71637;SDS011;59485;43.542;-5.676;2023-06-14T03:18:37;15.80;;;7.57;;
71637;SDS011;59485;43.542;-5.676;2023-06-14T03:21:03;17.00;;;6.72;;
71637;SDS011;59485;43.542;-5.676;2023-06-14T03:23:30;10.73;;;6.60;;
71637;SDS011;59485;43.542;-5.676;2023-06-14T03:25:56;12.77;;;7.07;;
71637;SDS011;59485;43.542;-5.676;2023-06-14T03:28:22;14.25;;;7.32;;
71637;SDS011;59485;43.542;-5.676;2023-06-14T03:30:47;16.50;;;7.67;;
71637;SDS011;59485;43.542;-5.676;2023-06-14T03:35:38;15.27;;;6.80;;
71637;SDS011;59485;43.542;-5.676;2023-06-14T03:38:04;12.83;;;7.00;;
71637;SDS011;59485;43.542;-5.676;2023-06-14T03:40:29;15.83;;;8.30;;
71637;SDS011;59485;43.542;-5.676;2023-06-14T03:42:56;16.80;;;8.18;;
71637;SDS011;59485;43.542;-5.676;2023-06-14T03:45:21;17.42;;;8.88;;
71637;SDS011;59485;43.542;-5.676;2023-06-14T03:47:47;15.53;;;9.53;;
71637;SDS011;59485;43.542;-5.676;2023-06-14T03:50:13;14.43;;;8.80;;
71637;SDS011;59485;43.542;-5.676;2023-06-14T03:52:38;13.63;;;7.67;;
71637;SDS011;59485;43.542;-5.676;2023-06-14T03:55:05;15.23;;;8.80;;
71637;SDS011;59485;43.542;-5.676;2023-06-14T03:57:31;15.10;;;9.48;;
71637;SDS011;59485;43.542;-5.676;2023-06-14T03:59:56;17.80;;;8.70;;
71637;SDS011;59485;43.542;-5.676;2023-06-14T04:02:22;17.95;;;8.73;;
71637;SDS011;59485;43.542;-5.676;2023-06-14T04:04:48;18.30;;;9.17;;
71637;SDS011;59485;43.542;-5.676;2023-06-14T04:07:14;15.90;;;9.70;;
71637;SDS011;59485;43.542;-5.676;2023-06-14T04:09:44;15.93;;;8.77;;
71637;SDS011;59485;43.542;-5.676;2023-06-14T04:12:10;15.13;;;9.75;;
71637;SDS011;59485;43.542;-5.676;2023-06-14T04:14:37;16.63;;;10.57;;
71637;SDS011;59485;43.542;-5.676;2023-06-14T04:17:03;20.58;;;10.75;;
71637;SDS011;59485;43.542;-5.676;2023-06-14T04:19:28;23.58;;;12.50;;
71637;SDS011;59485;43.542;-5.676;2023-06-14T04:21:54;29.80;;;16.30;;
71637;SDS011;59485;43.542;-5.676;2023-06-14T04:24:20;29.67;;;19.02;;
71637;SDS011;59485;43.542;-5.676;2023-06-14T04:26:45;42.57;;;28.47;;
71637;SDS011;59485;43.542;-5.676;2023-06-14T04:29:13;40.00;;;28.17;;
71637;SDS011;59485;43.542;-5.676;2023-06-14T04:31:41;41.65;;;27.25;;
71637;SDS011;59485;43.542;-5.676;2023-06-14T04:34:07;36.22;;;23.30;;
71637;SDS011;59485;43.542;-5.676;2023-06-14T04:36:33;32.90;;;21.23;;
71637;SDS011;59485;43.542;-5.676;2023-06-14T04:39:02;32.22;;;19.52;;
71637;SDS011;59485;43.542;-5.676;2023-06-14T04:41:29;23.20;;;15.82;;
71637;SDS011;59485;43.542;-5.676;2023-06-14T04:43:55;21.00;;;13.45;;
71637;SDS011;59485;43.542;-5.676;2023-06-14T04:46:28;19.77;;;12.40;;
71637;SDS011;59485;43.542;-5.676;2023-06-14T04:48:54;24.83;;;12.90;;
71637;SDS011;59485;43.542;-5.676;2023-06-14T04:51:19;24.43;;;12.13;;
71637;SDS011;59485;43.542;-5.676;2023-06-14T04:53:47;18.70;;;10.77;;
71637;SDS011;59485;43.542;-5.676;2023-06-14T04:56:14;19.23;;;10.32;;
71637;SDS011;59485;43.542;-5.676;2023-06-14T04:58:41;19.25;;;10.00;;
71637;SDS011;59485;43.542;-5.676;2023-06-14T05:01:07;16.77;;;10.23;;
71637;SDS011;59485;43.542;-5.676;2023-06-14T05:03:34;23.30;;;15.20;;
71637;SDS011;59485;43.542;-5.676;2023-06-14T05:06:00;41.33;;;25.87;;
71637;SDS011;59485;43.542;-5.676;2023-06-14T05:08:25;45.58;;;27.85;;
71637;SDS011;59485;43.542;-5.676;2023-06-14T05:10:51;37.80;;;23.15;;
71637;SDS011;59485;43.542;-5.676;2023-06-14T05:13:17;37.50;;;23.43;;
71637;SDS011;59485;43.542;-5.676;2023-06-14T05:15:43;34.92;;;22.90;;
71637;SDS011;59485;43.542;-5.676;2023-06-14T05:18:09;35.00;;;22.17;;
71637;SDS011;59485;43.542;-5.676;2023-06-14T05:20:35;31.65;;;19.55;;
71637;SDS011;59485;43.542;-5.676;2023-06-14T05:23:02;30.15;;;16.58;;
71637;SDS011;59485;43.542;-5.676;2023-06-14T05:25:31;23.90;;;15.07;;
71637;SDS011;59485;43.542;-5.676;2023-06-14T05:27:57;25.43;;;13.33;;
71637;SDS011;59485;43.542;-5.676;2023-06-14T05:30:22;20.13;;;11.90;;
71637;SDS011;59485;43.542;-5.676;2023-06-14T05:32:48;23.38;;;12.32;;
71637;SDS011;59485;43.542;-5.676;2023-06-14T05:35:13;27.53;;;13.87;;
71637;SDS011;59485;43.542;-5.676;2023-06-14T05:37:39;22.38;;;14.25;;
71637;SDS011;59485;43.542;-5.676;2023-06-14T05:40:06;23.13;;;13.25;;
71637;SDS011;59485;43.542;-5.676;2023-06-14T05:42:34;23.70;;;13.13;;
71637;SDS011;59485;43.542;-5.676;2023-06-14T05:44:59;20.83;;;11.73;;
71637;SDS011;59485;43.542;-5.676;2023-06-14T05:47:25;19.43;;;11.77;;
71637;SDS011;59485;43.542;-5.676;2023-06-14T05:49:52;23.52;;;12.65;;
71637;SDS011;59485;43.542;-5.676;2023-06-14T05:52:18;17.27;;;11.50;;
71637;SDS011;59485;43.542;-5.676;2023-06-14T05:54:44;19.60;;;10.10;;
71637;SDS011;59485;43.542;-5.676;2023-06-14T05:57:10;20.87;;;9.93;;
71637;SDS011;59485;43.542;-5.676;2023-06-14T05:59:35;16.55;;;8.65;;
71637;SDS011;59485;43.542;-5.676;2023-06-14T06:02:01;14.18;;;8.45;;
71637;SDS011;59485;43.542;-5.676;2023-06-14T06:04:27;16.37;;;8.43;;
71637;SDS011;59485;43.542;-5.676;2023-06-14T06:06:52;20.60;;;9.60;;
71637;SDS011;59485;43.542;-5.676;2023-06-14T06:09:18;15.45;;;9.50;;
71637;SDS011;59485;43.542;-5.676;2023-06-14T06:11:44;21.27;;;9.27;;
71637;SDS011;59485;43.542;-5.676;2023-06-14T06:14:09;17.40;;;8.50;;
71637;SDS011;59485;43.542;-5.676;2023-06-14T06:16:35;16.43;;;7.53;;
71637;SDS011;59485;43.542;-5.676;2023-06-14T06:19:00;15.93;;;8.23;;
71637;SDS011;59485;43.542;-5.676;2023-06-14T06:21:26;14.23;;;8.03;;
71637;SDS011;59485;43.542;-5.676;2023-06-14T06:23:51;16.03;;;7.90;;
71637;SDS011;59485;43.542;-5.676;2023-06-14T06:26:17;12.35;;;7.72;;
71637;SDS011;59485;43.542;-5.676;2023-06-14T06:28:42;16.23;;;7.97;;
71637;SDS011;59485;43.542;-5.676;2023-06-14T06:31:08;17.23;;;8.00;;
71637;SDS011;59485;43.542;-5.676;2023-06-14T06:33:34;13.27;;;7.97;;
71637;SDS011;59485;43.542;-5.676;2023-06-14T06:36:00;12.23;;;7.20;;
71637;SDS011;59485;43.542;-5.676;2023-06-14T06:38:25;15.57;;;6.90;;
71637;SDS011;59485;43.542;-5.676;2023-06-14T06:40:51;12.73;;;6.87;;
71637;SDS011;59485;43.542;-5.676;2023-06-14T06:43:19;14.57;;;7.50;;
71637;SDS011;59485;43.542;-5.676;2023-06-14T06:45:44;14.27;;;7.63;;
71637;SDS011;59485;43.542;-5.676;2023-06-14T06:48:09;13.80;;;7.68;;
71637;SDS011;59485;43.542;-5.676;2023-06-14T06:50:35;13.30;;;7.30;;
71637;SDS011;59485;43.542;-5.676;2023-06-14T06:53:01;13.25;;;8.23;;
71637;SDS011;59485;43.542;-5.676;2023-06-14T06:55:27;16.60;;;8.23;;
71637;SDS011;59485;43.542;-5.676;2023-06-14T06:57:53;13.00;;;7.67;;
71637;SDS011;59485;43.542;-5.676;2023-06-14T07:00:19;20.27;;;8.73;;
71637;SDS011;59485;43.542;-5.676;2023-06-14T07:02:45;15.15;;;7.93;;
71637;SDS011;59485;43.542;-5.676;2023-06-14T07:05:11;11.68;;;7.25;;
71637;SDS011;59485;43.542;-5.676;2023-06-14T07:07:36;13.97;;;8.30;;
71637;SDS011;59485;43.542;-5.676;2023-06-14T07:10:02;15.70;;;7.60;;
71637;SDS011;59485;43.542;-5.676;2023-06-14T07:12:30;14.60;;;7.63;;
71637;SDS011;59485;43.542;-5.676;2023-06-14T07:14:58;12.68;;;8.73;;
71637;SDS011;59485;43.542;-5.676;2023-06-14T07:17:24;18.02;;;8.20;;
71637;SDS011;59485;43.542;-5.676;2023-06-14T07:19:50;12.87;;;7.63;;
71637;SDS011;59485;43.542;-5.676;2023-06-14T07:22:17;12.83;;;7.17;;
71637;SDS011;59485;43.542;-5.676;2023-06-14T07:24:43;17.55;;;7.60;;
71637;SDS011;59485;43.542;-5.676;2023-06-14T07:27:08;15.03;;;6.50;;
71637;SDS011;59485;43.542;-5.676;2023-06-14T07:29:35;12.63;;;7.32;;
71637;SDS011;59485;43.542;-5.676;2023-06-14T07:32:00;13.27;;;6.40;;
71637;SDS011;59485;43.542;-5.676;2023-06-14T07:34:25;14.57;;;7.10;;
71637;SDS011;59485;43.542;-5.676;2023-06-14T07:36:52;14.47;;;6.70;;
71637;SDS011;59485;43.542;-5.676;2023-06-14T07:39:19;11.40;;;6.30;;
71637;SDS011;59485;43.542;-5.676;2023-06-14T07:41:44;14.45;;;7.40;;
71637;SDS011;59485;43.542;-5.676;2023-06-14T07:44:10;15.00;;;6.53;;
71637;SDS011;59485;43.542;-5.676;2023-06-14T07:46:37;12.50;;;6.22;;
71637;SDS011;59485;43.542;-5.676;2023-06-14T07:49:05;17.33;;;6.50;;
71637;SDS011;59485;43.542;-5.676;2023-06-14T07:51:31;16.45;;;7.75;;
71637;SDS011;59485;43.542;-5.676;2023-06-14T07:53:58;22.37;;;7.80;;
71637;SDS011;59485;43.542;-5.676;2023-06-14T07:56:26;14.63;;;7.65;;
71637;SDS011;59485;43.542;-5.676;2023-06-14T07:58:51;11.18;;;6.55;;
71637;SDS011;59485;43.542;-5.676;2023-06-14T08:01:17;11.93;;;4.70;;
71637;SDS011;59485;43.542;-5.676;2023-06-14T08:03:45;10.75;;;4.05;;
71637;SDS011;59485;43.542;-5.676;2023-06-14T08:06:10;11.40;;;4.13;;
71637;SDS011;59485;43.542;-5.676;2023-06-14T08:08:36;14.05;;;6.45;;
71637;SDS011;59485;43.542;-5.676;2023-06-14T08:11:02;15.27;;;7.33;;
71637;SDS011;59485;43.542;-5.676;2023-06-14T08:13:27;17.77;;;7.63;;
71637;SDS011;59485;43.542;-5.676;2023-06-14T08:15:53;21.10;;;6.40;;
71637;SDS011;59485;43.542;-5.676;2023-06-14T08:18:18;16.47;;;6.53;;
71637;SDS011;59485;43.542;-5.676;2023-06-14T08:20:44;14.23;;;5.88;;
71637;SDS011;59485;43.542;-5.676;2023-06-14T08:23:10;7.47;;;3.88;;
71637;SDS011;59485;43.542;-5.676;2023-06-14T08:25:36;9.00;;;3.53;;
71637;SDS011;59485;43.542;-5.676;2023-06-14T08:28:02;10.10;;;4.00;;
71637;SDS011;59485;43.542;-5.676;2023-06-14T08:30:27;10.30;;;3.97;;
71637;SDS011;59485;43.542;-5.676;2023-06-14T08:32:53;10.80;;;3.60;;
71637;SDS011;59485;43.542;-5.676;2023-06-14T08:35:20;8.25;;;3.67;;
71637;SDS011;59485;43.542;-5.676;2023-06-14T08:37:46;9.85;;;3.70;;
71637;SDS011;59485;43.542;-5.676;2023-06-14T08:40:19;12.13;;;4.43;;
71637;SDS011;59485;43.542;-5.676;2023-06-14T08:42:53;8.65;;;4.65;;
71637;SDS011;59485;43.542;-5.676;2023-06-14T08:45:23;9.45;;;4.50;;
71637;SDS011;59485;43.542;-5.676;2023-06-14T08:47:50;9.20;;;4.70;;
71637;SDS011;59485;43.542;-5.676;2023-06-14T08:50:23;10.55;;;5.25;;
71637;SDS011;59485;43.542;-5.676;2023-06-14T08:52:52;7.97;;;4.43;;
71637;SDS011;59485;43.542;-5.676;2023-06-14T08:55:19;11.15;;;4.70;;
71637;SDS011;59485;43.542;-5.676;2023-06-14T08:57:50;12.18;;;5.90;;
71637;SDS011;59485;43.542;-5.676;2023-06-14T09:00:17;15.65;;;5.22;;
71637;SDS011;59485;43.542;-5.676;2023-06-14T09:02:43;10.73;;;5.30;;
71637;SDS011;59485;43.542;-5.676;2023-06-14T09:05:12;12.33;;;5.10;;
71637;SDS011;59485;43.542;-5.676;2023-06-14T09:07:41;11.32;;;4.72;;
71637;SDS011;59485;43.542;-5.676;2023-06-14T09:10:13;10.90;;;4.45;;
71637;SDS011;59485;43.542;-5.676;2023-06-14T09:12:40;12.50;;;4.00;;
71637;SDS011;59485;43.542;-5.676;2023-06-14T09:15:09;10.20;;;3.50;;
71637;SDS011;59485;43.542;-5.676;2023-06-14T09:17:35;9.65;;;4.22;;
71637;SDS011;59485;43.542;-5.676;2023-06-14T09:20:05;9.27;;;3.58;;
71637;SDS011;59485;43.542;-5.676;2023-06-14T09:22:34;9.60;;;4.22;;
71637;SDS011;59485;43.542;-5.676;2023-06-14T09:25:01;8.67;;;3.83;;
71637;SDS011;59485;43.542;-5.676;2023-06-14T09:27:28;9.60;;;4.30;;
71637;SDS011;59485;43.542;-5.676;2023-06-14T09:29:54;7.35;;;3.85;;
71637;SDS011;59485;43.542;-5.676;2023-06-14T09:32:20;10.30;;;4.17;;
71637;SDS011;59485;43.542;-5.676;2023-06-14T09:34:47;11.13;;;4.10;;
71637;SDS011;59485;43.542;-5.676;2023-06-14T09:37:13;8.10;;;4.05;;
71637;SDS011;59485;43.542;-5.676;2023-06-14T09:39:52;9.73;;;3.88;;
71637;SDS011;59485;43.542;-5.676;2023-06-14T09:42:18;8.83;;;3.87;;
71637;SDS011;59485;43.542;-5.676;2023-06-14T09:44:46;14.80;;;3.90;;
71637;SDS011;59485;43.542;-5.676;2023-06-14T09:47:13;10.30;;;4.07;;
71637;SDS011;59485;43.542;-5.676;2023-06-14T09:49:40;12.77;;;4.23;;
71637;SDS011;59485;43.542;-5.676;2023-06-14T09:52:06;8.52;;;3.60;;
71637;SDS011;59485;43.542;-5.676;2023-06-14T09:54:37;10.40;;;3.88;;
71637;SDS011;59485;43.542;-5.676;2023-06-14T09:57:07;10.88;;;3.92;;
71637;SDS011;59485;43.542;-5.676;2023-06-14T09:59:36;10.67;;;3.47;;
71637;SDS011;59485;43.542;-5.676;2023-06-14T10:02:09;7.65;;;3.10;;
71637;SDS011;59485;43.542;-5.676;2023-06-14T10:04:44;9.68;;;3.40;;
71637;SDS011;59485;43.542;-5.676;2023-06-14T10:07:15;7.60;;;2.75;;
71637;SDS011;59485;43.542;-5.676;2023-06-14T10:09:45;11.38;;;3.72;;
71637;SDS011;59485;43.542;-5.676;2023-06-14T10:12:16;9.17;;;2.90;;
71637;SDS011;59485;43.542;-5.676;2023-06-14T10:14:49;8.65;;;3.28;;
71637;SDS011;59485;43.542;-5.676;2023-06-14T10:17:23;8.40;;;3.78;;
71637;SDS011;59485;43.542;-5.676;2023-06-14T10:20:02;9.15;;;3.85;;
71637;SDS011;59485;43.542;-5.676;2023-06-14T10:22:56;11.18;;;4.03;;
71637;SDS011;59485;43.542;-5.676;2023-06-14T10:25:30;10.70;;;2.90;;
71637;SDS011;59485;43.542;-5.676;2023-06-14T10:30:37;8.02;;;3.75;;
71637;SDS011;59485;43.542;-5.676;2023-06-14T10:33:03;10.93;;;3.33;;
71637;SDS011;59485;43.542;-5.676;2023-06-14T10:35:31;8.95;;;3.60;;
71637;SDS011;59485;43.542;-5.676;2023-06-14T10:38:06;8.70;;;3.30;;
71637;SDS011;59485;43.542;-5.676;2023-06-14T10:40:34;8.03;;;3.03;;
71637;SDS011;59485;43.542;-5.676;2023-06-14T10:43:01;7.13;;;2.70;;
71637;SDS011;59485;43.542;-5.676;2023-06-14T10:46:46;8.05;;;3.30;;
71637;SDS011;59485;43.542;-5.676;2023-06-14T10:48:43;11.88;;;3.10;;
71637;SDS011;59485;43.542;-5.676;2023-06-14T10:51:16;8.38;;;3.25;;
71637;SDS011;59485;43.542;-5.676;2023-06-14T10:53:49;8.97;;;2.90;;
71637;SDS011;59485;43.542;-5.676;2023-06-14T10:56:37;13.98;;;3.20;;
71637;SDS011;59485;43.542;-5.676;2023-06-14T10:59:02;11.50;;;3.63;;
71637;SDS011;59485;43.542;-5.676;2023-06-14T11:04:10;8.27;;;2.90;;
71637;SDS011;59485;43.542;-5.676;2023-06-14T11:12:25;8.40;;;3.25;;
71637;SDS011;59485;43.542;-5.676;2023-06-14T11:14:53;9.47;;;3.63;;
71637;SDS011;59485;43.542;-5.676;2023-06-14T11:17:18;8.85;;;3.45;;
71637;SDS011;59485;43.542;-5.676;2023-06-14T11:19:45;8.05;;;3.47;;
71637;SDS011;59485;43.542;-5.676;2023-06-14T11:22:10;6.57;;;3.10;;
71637;SDS011;59485;43.542;-5.676;2023-06-14T11:24:37;8.13;;;3.05;;
71637;SDS011;59485;43.542;-5.676;2023-06-14T11:27:02;8.33;;;2.70;;
71637;SDS011;59485;43.542;-5.676;2023-06-14T11:29:29;10.15;;;3.10;;
71637;SDS011;59485;43.542;-5.676;2023-06-14T11:31:55;8.00;;;3.07;;
71637;SDS011;59485;43.542;-5.676;2023-06-14T11:34:21;8.38;;;3.33;;
71637;SDS011;59485;43.542;-5.676;2023-06-14T11:36:46;8.37;;;3.23;;
71637;SDS011;59485;43.542;-5.676;2023-06-14T11:39:12;8.02;;;3.03;;
71637;SDS011;59485;43.542;-5.676;2023-06-14T11:41:44;9.80;;;3.13;;
71637;SDS011;59485;43.542;-5.676;2023-06-14T11:44:10;10.25;;;3.30;;
71637;SDS011;59485;43.542;-5.676;2023-06-14T11:46:37;7.72;;;3.30;;
71637;SDS011;59485;43.542;-5.676;2023-06-14T11:49:03;10.10;;;3.13;;
71637;SDS011;59485;43.542;-5.676;2023-06-14T11:51:32;9.00;;;2.92;;
71637;SDS011;59485;43.542;-5.676;2023-06-14T11:54:00;9.27;;;3.00;;
71637;SDS011;59485;43.542;-5.676;2023-06-14T11:56:32;10.15;;;3.30;;
71637;SDS011;59485;43.542;-5.676;2023-06-14T11:58:58;8.35;;;3.70;;
71637;SDS011;59485;43.542;-5.676;2023-06-14T12:01:25;8.50;;;3.00;;
71637;SDS011;59485;43.542;-5.676;2023-06-14T12:03:52;8.47;;;3.20;;
71637;SDS011;59485;43.542;-5.676;2023-06-14T12:06:25;7.13;;;2.85;;
71637;SDS011;59485;43.542;-5.676;2023-06-14T12:08:55;8.60;;;3.33;;
71637;SDS011;59485;43.542;-5.676;2023-06-14T12:11:21;7.82;;;3.22;;
71637;SDS011;59485;43.542;-5.676;2023-06-14T12:13:47;7.07;;;3.53;;
71637;SDS011;59485;43.542;-5.676;2023-06-14T12:16:14;10.55;;;3.47;;
71637;SDS011;59485;43.542;-5.676;2023-06-14T12:18:40;12.15;;;3.50;;
71637;SDS011;59485;43.542;-5.676;2023-06-14T12:21:09;6.53;;;3.30;;
71637;SDS011;59485;43.542;-5.676;2023-06-14T12:26:15;7.45;;;2.67;;
71637;SDS011;59485;43.542;-5.676;2023-06-14T12:28:42;8.07;;;3.88;;
71637;SDS011;59485;43.542;-5.676;2023-06-14T12:31:09;7.18;;;2.95;;
71637;SDS011;59485;43.542;-5.676;2023-06-14T12:33:36;6.38;;;3.00;;
71637;SDS011;59485;43.542;-5.676;2023-06-14T12:36:06;12.83;;;3.50;;
71637;SDS011;59485;43.542;-5.676;2023-06-14T12:38:32;6.82;;;2.75;;
71637;SDS011;59485;43.542;-5.676;2023-06-14T12:40:58;6.45;;;3.15;;
71637;SDS011;59485;43.542;-5.676;2023-06-14T12:43:24;7.27;;;3.10;;
71637;SDS011;59485;43.542;-5.676;2023-06-14T12:45:49;8.88;;;3.70;;
71637;SDS011;59485;43.542;-5.676;2023-06-14T12:48:15;7.87;;;3.50;;
71637;SDS011;59485;43.542;-5.676;2023-06-14T12:50:41;10.90;;;3.27;;
71637;SDS011;59485;43.542;-5.676;2023-06-14T12:53:06;6.47;;;2.80;;
71637;SDS011;59485;43.542;-5.676;2023-06-14T12:55:32;8.13;;;3.13;;
71637;SDS011;59485;43.542;-5.676;2023-06-14T12:57:58;6.93;;;2.50;;
71637;SDS011;59485;43.542;-5.676;2023-06-14T13:00:24;8.90;;;2.90;;
71637;SDS011;59485;43.542;-5.676;2023-06-14T13:02:51;6.97;;;2.90;;
71637;SDS011;59485;43.542;-5.676;2023-06-14T13:05:17;5.90;;;2.75;;
71637;SDS011;59485;43.542;-5.676;2023-06-14T13:07:43;10.40;;;3.20;;
71637;SDS011;59485;43.542;-5.676;2023-06-14T13:10:12;9.75;;;3.28;;
71637;SDS011;59485;43.542;-5.676;2023-06-14T13:12:38;8.90;;;2.70;;
71637;SDS011;59485;43.542;-5.676;2023-06-14T13:15:06;9.07;;;3.40;;
71637;SDS011;59485;43.542;-5.676;2023-06-14T13:17:35;9.80;;;3.03;;
71637;SDS011;59485;43.542;-5.676;2023-06-14T13:20:16;10.77;;;3.60;;
71637;SDS011;59485;43.542;-5.676;2023-06-14T13:22:42;9.25;;;3.28;;
71637;SDS011;59485;43.542;-5.676;2023-06-14T13:25:07;7.10;;;2.93;;
71637;SDS011;59485;43.542;-5.676;2023-06-14T13:27:33;7.05;;;2.83;;
71637;SDS011;59485;43.542;-5.676;2023-06-14T13:29:58;7.27;;;2.83;;
71637;SDS011;59485;43.542;-5.676;2023-06-14T13:32:24;6.80;;;2.70;;
71637;SDS011;59485;43.542;-5.676;2023-06-14T13:34:50;7.80;;;2.40;;
71637;SDS011;59485;43.542;-5.676;2023-06-14T13:37:16;5.55;;;2.35;;
71637;SDS011;59485;43.542;-5.676;2023-06-14T13:39:41;5.00;;;2.40;;
71637;SDS011;59485;43.542;-5.676;2023-06-14T13:42:07;7.70;;;2.33;;
71637;SDS011;59485;43.542;-5.676;2023-06-14T13:44:33;6.60;;;2.00;;
71637;SDS011;59485;43.542;-5.676;2023-06-14T13:46:59;10.32;;;2.70;;
71637;SDS011;59485;43.542;-5.676;2023-06-14T13:49:25;7.03;;;1.80;;
71637;SDS011;59485;43.542;-5.676;2023-06-14T13:51:51;8.63;;;1.80;;
71637;SDS011;59485;43.542;-5.676;2023-06-14T13:54:18;8.53;;;2.43;;
71637;SDS011;59485;43.542;-5.676;2023-06-14T13:56:45;6.72;;;2.50;;
71637;SDS011;59485;43.542;-5.676;2023-06-14T13:59:11;6.93;;;2.47;;
71637;SDS011;59485;43.542;-5.676;2023-06-14T14:01:37;7.07;;;2.38;;
71637;SDS011;59485;43.542;-5.676;2023-06-14T14:04:02;5.18;;;1.80;;
71637;SDS011;59485;43.542;-5.676;2023-06-14T14:06:30;6.23;;;2.03;;
71637;SDS011;59485;43.542;-5.676;2023-06-14T14:08:56;4.45;;;1.88;;
71637;SDS011;59485;43.542;-5.676;2023-06-14T14:11:21;9.43;;;2.72;;
71637;SDS011;59485;43.542;-5.676;2023-06-14T14:13:47;7.53;;;2.37;;
71637;SDS011;59485;43.542;-5.676;2023-06-14T14:16:13;6.45;;;2.75;;
71637;SDS011;59485;43.542;-5.676;2023-06-14T14:18:38;5.33;;;1.57;;
71637;SDS011;59485;43.542;-5.676;2023-06-14T14:21:04;4.80;;;1.90;;
71637;SDS011;59485;43.542;-5.676;2023-06-14T14:23:30;4.80;;;2.27;;
71637;SDS011;59485;43.542;-5.676;2023-06-14T14:25:56;5.05;;;2.22;;
71637;SDS011;59485;43.542;-5.676;2023-06-14T14:28:21;6.63;;;2.07;;
71637;SDS011;59485;43.542;-5.676;2023-06-14T14:30:47;6.57;;;2.20;;
71637;SDS011;59485;43.542;-5.676;2023-06-14T14:33:13;5.60;;;1.70;;
71637;SDS011;59485;43.542;-5.676;2023-06-14T14:35:44;6.97;;;2.03;;
71637;SDS011;59485;43.542;-5.676;2023-06-14T14:38:13;5.97;;;1.80;;
71637;SDS011;59485;43.542;-5.676;2023-06-14T14:40:40;6.85;;;2.15;;
71637;SDS011;59485;43.542;-5.676;2023-06-14T14:43:06;4.97;;;1.77;;